createdAt,value
2023-03-06T00:00:51.461Z,8.90
2023-03-06T00:03:19.875Z,8.73
2023-03-06T00:05:48.310Z,9.18
2023-03-06T00:08:16.307Z,8.50
2023-03-06T00:10:44.558Z,10.13
2023-03-06T00:13:16.542Z,9.30
2023-03-06T00:15:46.437Z,8.38
2023-03-06T00:18:14.812Z,9.50
2023-03-06T00:20:43.907Z,9.55
2023-03-06T00:23:12.835Z,9.65
2023-03-06T00:25:44.023Z,8.73
2023-03-06T00:28:12.408Z,8.63
2023-03-06T00:30:40.342Z,9.25
2023-03-06T00:33:09.433Z,8.63
2023-03-06T00:35:39.396Z,7.97
2023-03-06T00:38:07.251Z,9.00
2023-03-06T00:40:35.214Z,8.27
2023-03-06T00:43:02.987Z,8.73
2023-03-06T00:45:30.798Z,8.65
2023-03-06T00:47:58.871Z,9.07
2023-03-06T00:50:28.594Z,8.70
2023-03-06T00:52:56.801Z,8.68
2023-03-06T00:55:24.547Z,8.65
2023-03-06T00:57:52.240Z,8.52
2023-03-06T01:00:21.031Z,9.23
2023-03-06T01:02:48.864Z,8.65
2023-03-06T01:05:16.731Z,9.30
2023-03-06T01:07:45.993Z,8.52
2023-03-06T01:10:13.781Z,8.85
2023-03-06T01:12:41.644Z,8.23
2023-03-06T01:15:10.505Z,8.88
2023-03-06T01:17:38.272Z,8.77
2023-03-06T01:20:07.149Z,8.27
2023-03-06T01:22:35.026Z,7.90
2023-03-06T01:25:04.486Z,8.30
2023-03-06T01:27:32.287Z,9.02
2023-03-06T01:29:59.986Z,8.48
2023-03-06T01:32:27.832Z,9.18
2023-03-06T01:34:55.698Z,8.57
2023-03-06T01:37:23.514Z,8.80
2023-03-06T01:39:51.346Z,9.52
2023-03-06T01:42:20.546Z,8.52
2023-03-06T01:44:59.851Z,8.88
2023-03-06T01:47:28.116Z,8.27
2023-03-06T01:49:57.744Z,8.63
2023-03-06T01:52:30.288Z,8.68
2023-03-06T01:55:01.666Z,8.95
2023-03-06T01:57:33.671Z,9.23
2023-03-06T02:02:31.774Z,9.30
2023-03-06T02:05:00.721Z,9.30
2023-03-06T02:07:29.694Z,9.40
2023-03-06T02:09:57.644Z,9.25
2023-03-06T02:12:26.217Z,9.80
2023-03-06T02:14:55.504Z,8.88
2023-03-06T02:17:24.577Z,9.50
2023-03-06T02:19:59.526Z,9.85
2023-03-06T02:22:35.776Z,10.25
2023-03-06T02:25:09.284Z,9.85
2023-03-06T02:27:38.599Z,8.82
2023-03-06T02:30:09.421Z,10.15
2023-03-06T02:32:37.267Z,8.73
2023-03-06T02:35:07.144Z,9.68
2023-03-06T02:37:34.910Z,9.63
2023-03-06T02:40:09.298Z,9.07
2023-03-06T02:42:38.481Z,8.95
2023-03-06T02:45:12.177Z,9.20
2023-03-06T02:47:39.886Z,10.57
2023-03-06T02:50:08.118Z,11.27
2023-03-06T02:52:35.921Z,10.95
2023-03-06T02:55:04.528Z,11.40
2023-03-06T02:57:32.777Z,12.48
2023-03-06T03:00:01.861Z,12.18
2023-03-06T03:02:29.635Z,10.65
2023-03-06T03:04:57.464Z,11.25
2023-03-06T03:07:25.219Z,11.90
2023-03-06T03:09:52.993Z,12.45
2023-03-06T03:12:22.312Z,13.73
2023-03-06T03:14:50.516Z,12.75
2023-03-06T03:17:19.641Z,13.38
2023-03-06T03:19:47.775Z,12.38
2023-03-06T03:22:15.559Z,13.50
2023-03-06T03:24:43.841Z,13.20
2023-03-06T03:27:12.209Z,13.77
2023-03-06T03:29:40.130Z,14.80
2023-03-06T03:32:08.312Z,13.32
2023-03-06T03:34:37.477Z,13.20
2023-03-06T03:37:05.313Z,13.13
2023-03-06T03:39:33.442Z,13.05
2023-03-06T03:42:01.234Z,13.60
2023-03-06T03:44:28.968Z,14.27
2023-03-06T03:46:56.652Z,13.40
2023-03-06T03:49:24.394Z,13.90
2023-03-06T03:51:53.730Z,14.32
2023-03-06T03:54:21.780Z,13.07
2023-03-06T03:56:49.666Z,12.95
2023-03-06T03:59:17.472Z,13.38
2023-03-06T04:01:45.932Z,14.68
2023-03-06T04:04:13.977Z,15.02
2023-03-06T04:06:41.720Z,13.77
2023-03-06T04:09:11.331Z,14.43
2023-03-06T04:11:39.187Z,14.32
2023-03-06T04:14:08.274Z,13.35
2023-03-06T04:16:36.300Z,14.02
2023-03-06T04:19:04.226Z,13.80
2023-03-06T04:21:32.001Z,15.18
2023-03-06T04:23:59.744Z,14.25
2023-03-06T04:26:29.007Z,14.55
2023-03-06T04:28:56.809Z,14.23
2023-03-06T04:31:24.598Z,13.55
2023-03-06T04:33:52.705Z,14.63
2023-03-06T04:36:27.924Z,13.57
2023-03-06T04:38:55.817Z,14.85
2023-03-06T04:41:23.869Z,16.25
2023-03-06T04:43:53.502Z,15.77
2023-03-06T04:46:21.295Z,16.30
2023-03-06T04:48:49.094Z,15.23
2023-03-06T04:51:16.994Z,15.85
2023-03-06T04:53:44.858Z,16.17
2023-03-06T04:56:12.697Z,14.85
2023-03-06T04:58:40.863Z,15.00
2023-03-06T05:01:10.081Z,14.43
2023-03-06T05:03:37.991Z,13.90
2023-03-06T05:06:06.400Z,15.50
2023-03-06T05:08:34.157Z,14.90
2023-03-06T05:11:03.457Z,14.65
2023-03-06T05:13:31.449Z,13.93
2023-03-06T05:16:03.723Z,13.73
2023-03-06T05:18:33.334Z,13.18
2023-03-06T05:21:01.145Z,14.55
2023-03-06T05:23:29.732Z,14.15
2023-03-06T05:25:57.621Z,13.50
2023-03-06T05:28:26.541Z,14.77
2023-03-06T05:30:54.272Z,13.43
2023-03-06T05:33:22.047Z,12.98
2023-03-06T05:35:51.965Z,13.38
2023-03-06T05:38:20.277Z,13.73
2023-03-06T05:40:48.947Z,12.95
2023-03-06T05:43:16.709Z,13.80
2023-03-06T05:45:44.627Z,13.20
2023-03-06T05:48:14.492Z,13.43
2023-03-06T05:50:42.235Z,13.35
2023-03-06T05:53:11.393Z,12.95
2023-03-06T05:55:39.177Z,13.02
2023-03-06T05:58:07.148Z,13.32
2023-03-06T06:00:34.870Z,14.30
2023-03-06T06:03:03.101Z,14.48
2023-03-06T06:05:31.141Z,11.93
2023-03-06T06:07:58.841Z,13.82
2023-03-06T06:10:28.007Z,15.10
2023-03-06T06:12:55.776Z,13.32
2023-03-06T06:15:23.925Z,12.30
2023-03-06T06:17:51.657Z,13.48
2023-03-06T06:20:20.071Z,13.60
2023-03-06T06:22:47.920Z,12.40
2023-03-06T06:25:16.460Z,12.98
2023-03-06T06:27:45.629Z,12.10
2023-03-06T06:30:14.112Z,13.23
2023-03-06T06:32:41.885Z,12.20
2023-03-06T06:35:10.520Z,12.85
2023-03-06T06:37:38.395Z,12.35
2023-03-06T06:40:07.396Z,14.45
2023-03-06T06:42:39.858Z,13.63
2023-03-06T06:45:11.385Z,13.27
2023-03-06T06:47:41.914Z,13.50
2023-03-06T06:50:13.543Z,13.05
2023-03-06T06:52:41.517Z,14.80
2023-03-06T06:55:10.467Z,14.23
2023-03-06T06:57:38.313Z,15.20
2023-03-06T07:00:07.192Z,14.13
2023-03-06T07:02:36.346Z,12.93
2023-03-06T07:05:05.608Z,14.00
2023-03-06T07:07:36.519Z,13.77
2023-03-06T07:10:06.562Z,13.25
2023-03-06T07:12:35.497Z,13.52
2023-03-06T07:15:04.055Z,13.68
2023-03-06T07:17:31.804Z,14.00
2023-03-06T07:20:00.864Z,13.77
2023-03-06T07:22:31.939Z,14.88
2023-03-06T07:25:04.164Z,13.95
2023-03-06T07:27:32.107Z,13.20
2023-03-06T07:29:59.863Z,13.98
2023-03-06T07:32:27.808Z,13.80
2023-03-06T07:35:09.093Z,13.30
2023-03-06T07:37:44.661Z,13.55
2023-03-06T07:40:13.588Z,14.13
2023-03-06T07:42:41.338Z,14.00
2023-03-06T07:45:10.160Z,13.77
2023-03-06T07:47:37.910Z,13.43
2023-03-06T07:50:07.348Z,13.13
2023-03-06T07:52:35.598Z,12.20
2023-03-06T07:55:05.553Z,15.60
2023-03-06T07:57:33.323Z,16.63
2023-03-06T08:00:01.107Z,14.60
2023-03-06T08:02:28.867Z,15.43
2023-03-06T08:04:57.230Z,15.43
2023-03-06T08:07:25.370Z,14.50
2023-03-06T08:09:53.156Z,16.88
2023-03-06T08:12:22.410Z,16.60
2023-03-06T08:14:50.132Z,15.93
2023-03-06T08:17:17.968Z,16.25
2023-03-06T08:19:45.734Z,16.85
2023-03-06T08:22:14.040Z,17.58
2023-03-06T08:24:42.509Z,16.40
2023-03-06T08:27:10.319Z,16.33
2023-03-06T08:29:39.878Z,16.25
2023-03-06T08:32:11.539Z,17.05
2023-03-06T08:34:40.167Z,16.73
2023-03-06T08:37:08.380Z,17.25
2023-03-06T08:39:36.483Z,16.00
2023-03-06T08:42:04.575Z,16.02
2023-03-06T08:44:32.464Z,16.17
2023-03-06T08:47:02.153Z,15.48
2023-03-06T08:49:29.907Z,15.90
2023-03-06T08:51:57.726Z,16.23
2023-03-06T08:54:25.506Z,15.68
2023-03-06T08:56:53.892Z,14.50
2023-03-06T08:59:21.649Z,13.80
2023-03-06T09:01:49.531Z,13.18
2023-03-06T09:04:18.888Z,14.02
2023-03-06T09:06:46.928Z,13.23
2023-03-06T09:09:15.077Z,13.13
2023-03-06T09:11:42.885Z,14.63
2023-03-06T09:14:10.619Z,13.45
2023-03-06T09:16:38.827Z,14.57
2023-03-06T09:19:07.101Z,14.35
2023-03-06T09:21:36.199Z,15.27
2023-03-06T09:24:03.982Z,14.32
2023-03-06T09:26:45.008Z,13.77
2023-03-06T09:29:15.877Z,13.65
2023-03-06T09:31:43.659Z,13.20
2023-03-06T09:34:11.519Z,14.80
2023-03-06T09:36:55.579Z,14.48
2023-03-06T09:39:25.421Z,13.38
2023-03-06T09:41:53.638Z,12.68
2023-03-06T09:44:23.899Z,13.20
2023-03-06T09:47:10.112Z,13.98
2023-03-06T09:49:52.850Z,12.85
2023-03-06T09:52:32.571Z,14.68
2023-03-06T09:55:10.236Z,13.40
2023-03-06T09:57:42.274Z,13.70
2023-03-06T10:02:47.016Z,14.15
2023-03-06T10:05:22.697Z,13.88
2023-03-06T10:07:58.093Z,15.07
2023-03-06T10:10:28.445Z,15.13
2023-03-06T10:13:03.322Z,13.23
2023-03-06T10:15:34.345Z,12.35
2023-03-06T10:18:03.035Z,13.15
2023-03-06T10:20:37.828Z,13.27
2023-03-06T10:23:27.364Z,12.70
2023-03-06T10:26:01.152Z,12.85
2023-03-06T10:28:36.667Z,13.45
2023-03-06T10:31:10.503Z,13.68
2023-03-06T10:33:51.875Z,14.70
2023-03-06T10:36:22.178Z,10.20
2023-03-06T10:38:51.357Z,13.85
2023-03-06T10:41:26.094Z,13.43
2023-03-06T10:44:20.633Z,12.55
2023-03-06T10:46:50.078Z,13.73
2023-03-06T10:49:27.518Z,14.95
2023-03-06T10:52:01.604Z,12.57
2023-03-06T10:54:32.359Z,13.25
2023-03-06T10:57:19.314Z,13.18
2023-03-06T10:59:53.467Z,14.10
2023-03-06T11:02:32.402Z,12.05
2023-03-06T11:05:03.786Z,13.15
2023-03-06T11:07:33.023Z,12.60
2023-03-06T11:10:17.900Z,12.27
2023-03-06T11:12:58.101Z,12.55
2023-03-06T11:15:26.766Z,12.30
2023-03-06T11:18:01.278Z,11.65
2023-03-06T11:20:48.595Z,12.25
2023-03-06T11:23:20.471Z,12.63
2023-03-06T11:25:54.973Z,12.30
2023-03-06T11:28:26.903Z,13.05
2023-03-06T11:30:58.589Z,12.25
2023-03-06T11:33:32.461Z,13.07
2023-03-06T11:36:10.467Z,12.57
2023-03-06T11:38:45.239Z,12.52
2023-03-06T11:41:23.531Z,12.85
2023-03-06T11:44:00.655Z,11.60
2023-03-06T11:46:34.092Z,12.70
2023-03-06T11:49:10.754Z,12.57
2023-03-06T11:51:44.276Z,12.65
2023-03-06T11:54:14.242Z,12.30
2023-03-06T11:56:53.630Z,12.30
2023-03-06T11:59:52.469Z,12.05
2023-03-06T12:02:34.356Z,12.27
2023-03-06T12:05:23.059Z,12.57
2023-03-06T12:08:02.560Z,12.73
2023-03-06T12:10:37.112Z,13.23
2023-03-06T12:16:08.274Z,12.23
2023-03-06T12:18:44.842Z,13.48
2023-03-06T12:21:22.622Z,12.63
2023-03-06T12:24:03.771Z,12.20
2023-03-06T12:26:50.728Z,12.43
2023-03-06T12:29:34.551Z,12.48
2023-03-06T12:32:15.223Z,12.82
2023-03-06T12:35:01.418Z,12.50
2023-03-06T12:37:41.159Z,12.15
2023-03-06T12:40:35.800Z,10.85
2023-03-06T12:43:23.208Z,10.93
2023-03-06T12:45:58.899Z,11.15
2023-03-06T12:48:30.342Z,11.77
2023-03-06T12:50:58.784Z,12.20
2023-03-06T12:53:29.476Z,11.20
2023-03-06T12:55:59.611Z,11.30
2023-03-06T12:58:50.951Z,11.50
2023-03-06T13:01:53.953Z,11.50
2023-03-06T13:04:45.537Z,11.18
2023-03-06T13:07:30.067Z,10.45
2023-03-06T13:10:10.288Z,10.18
2023-03-06T13:12:49.856Z,10.95
2023-03-06T13:15:33.002Z,10.48
2023-03-06T13:18:02.580Z,10.48
2023-03-06T13:20:42.842Z,10.63
2023-03-06T13:23:51.865Z,10.52
2023-03-06T13:26:52.078Z,9.55
2023-03-06T13:30:02.542Z,10.85
2023-03-06T13:32:33.822Z,10.55
2023-03-06T13:35:04.268Z,9.73
2023-03-06T13:38:00.129Z,10.10
2023-03-06T13:40:35.138Z,9.70
2023-03-06T13:43:18.522Z,9.93
2023-03-06T13:45:48.259Z,9.95
2023-03-06T13:48:44.397Z,9.95
2023-03-06T13:51:26.461Z,9.32
2023-03-06T13:54:21.241Z,9.13
2023-03-06T13:57:27.742Z,9.85
2023-03-06T14:00:26.936Z,9.48
2023-03-06T14:03:29.328Z,8.93
2023-03-06T14:05:58.899Z,8.75
2023-03-06T14:08:31.390Z,9.13
2023-03-06T14:11:04.800Z,10.10
2023-03-06T14:13:45.428Z,8.98
2023-03-06T14:18:48.822Z,8.88
2023-03-06T14:21:27.062Z,10.30
2023-03-06T14:24:01.076Z,9.43
2023-03-06T14:26:32.864Z,9.18
2023-03-06T14:29:01.989Z,9.38
2023-03-06T14:31:32.707Z,9.27
2023-03-06T14:34:02.474Z,9.73
2023-03-06T14:36:35.532Z,9.00
2023-03-06T14:39:12.238Z,9.23
2023-03-06T14:41:40.603Z,9.20
2023-03-06T14:44:10.372Z,9.30
2023-03-06T14:46:38.215Z,9.30
2023-03-06T14:49:08.198Z,8.60
2023-03-06T14:51:41.777Z,9.88
2023-03-06T14:54:16.873Z,8.73
2023-03-06T14:56:48.381Z,8.65
2023-03-06T14:59:21.759Z,8.38
2023-03-06T15:01:52.459Z,8.98
2023-03-06T15:04:27.633Z,8.80
2023-03-06T15:06:57.467Z,8.10
2023-03-06T15:09:30.205Z,8.30
2023-03-06T15:12:00.206Z,8.38
2023-03-06T15:14:33.080Z,8.82
2023-03-06T15:17:21.615Z,8.48
2023-03-06T15:19:51.882Z,8.68
2023-03-06T15:22:27.853Z,8.30
2023-03-06T15:25:18.723Z,9.00
2023-03-06T15:27:50.789Z,8.05
2023-03-06T15:33:24.944Z,8.02
2023-03-06T15:35:57.212Z,7.03
2023-03-06T15:38:30.800Z,8.13
2023-03-06T15:41:02.388Z,8.15
2023-03-06T15:43:35.086Z,7.55
2023-03-06T15:46:03.216Z,7.95
2023-03-06T15:48:30.923Z,7.95
2023-03-06T15:50:59.202Z,8.10
2023-03-06T15:53:27.027Z,8.13
2023-03-06T15:55:55.185Z,7.53
2023-03-06T15:58:26.828Z,7.95
2023-03-06T16:00:54.645Z,8.07
2023-03-06T16:03:22.453Z,8.20
2023-03-06T16:05:50.198Z,8.57
2023-03-06T16:08:17.918Z,8.13
2023-03-06T16:10:46.790Z,7.70
2023-03-06T16:13:17.662Z,8.70
2023-03-06T16:15:49.981Z,8.15
2023-03-06T16:18:18.669Z,8.48
2023-03-06T16:20:47.090Z,8.35
2023-03-06T16:23:16.018Z,7.78
2023-03-06T16:25:48.761Z,7.78
2023-03-06T16:28:17.556Z,8.27
2023-03-06T16:30:47.210Z,8.18
2023-03-06T16:33:15.203Z,7.65
2023-03-06T16:35:44.478Z,8.32
2023-03-06T16:38:12.409Z,7.63
2023-03-06T16:40:41.401Z,8.25
2023-03-06T16:43:10.619Z,8.15
2023-03-06T16:45:40.225Z,7.95
2023-03-06T16:48:14.986Z,8.23
2023-03-06T16:50:43.158Z,8.93
2023-03-06T16:53:11.019Z,8.18
2023-03-06T16:55:38.827Z,8.82
2023-03-06T16:58:06.706Z,8.20
2023-03-06T17:00:34.515Z,8.38
2023-03-06T17:03:03.159Z,8.82
2023-03-06T17:05:34.327Z,8.50
2023-03-06T17:08:02.420Z,5.77
2023-03-06T17:10:30.231Z,8.48
2023-03-06T17:12:58.483Z,8.55
2023-03-06T17:15:26.289Z,8.75
2023-03-06T17:17:54.105Z,8.38
2023-03-06T17:20:23.849Z,7.97
2023-03-06T17:22:53.068Z,11.02
2023-03-06T17:25:21.244Z,11.13
2023-03-06T17:27:49.187Z,9.38
2023-03-06T17:30:17.056Z,9.13
2023-03-06T17:32:44.804Z,8.63
2023-03-06T17:35:12.535Z,10.00
2023-03-06T17:37:40.774Z,9.20
2023-03-06T17:40:12.103Z,9.45
2023-03-06T17:42:39.961Z,9.32
2023-03-06T17:45:11.129Z,9.93
2023-03-06T17:47:39.030Z,8.93
2023-03-06T17:50:07.251Z,8.90
2023-03-06T17:52:34.975Z,11.63
2023-03-06T17:55:02.793Z,12.05
2023-03-06T17:57:32.068Z,10.60
2023-03-06T17:59:59.895Z,10.00
2023-03-06T18:02:27.628Z,8.95
2023-03-06T18:04:58.060Z,9.13
2023-03-06T18:07:26.628Z,10.32
2023-03-06T18:09:54.469Z,8.82
2023-03-06T18:12:22.378Z,8.73
2023-03-06T18:14:51.757Z,9.88
2023-03-06T18:17:19.497Z,8.63
2023-03-06T18:19:47.809Z,8.65
2023-03-06T18:22:15.520Z,9.15
2023-03-06T18:24:43.413Z,8.32
2023-03-06T18:27:11.241Z,9.25
2023-03-06T18:29:38.968Z,8.48
2023-03-06T18:32:10.591Z,9.45
2023-03-06T18:34:38.418Z,8.80
2023-03-06T18:37:06.274Z,8.82
2023-03-06T18:39:33.965Z,8.35
2023-03-06T18:42:01.788Z,8.30
2023-03-06T18:44:29.605Z,8.18
2023-03-06T18:46:57.489Z,8.55
2023-03-06T18:49:26.768Z,9.40
2023-03-06T18:51:54.527Z,9.85
2023-03-06T18:54:22.360Z,8.90
2023-03-06T18:56:50.109Z,8.98
2023-03-06T18:59:18.979Z,8.68
2023-03-06T19:01:47.540Z,9.60
2023-03-06T19:04:15.935Z,9.60
2023-03-06T19:06:45.030Z,9.55
2023-03-06T19:09:12.821Z,9.50
2023-03-06T19:11:41.006Z,9.30
2023-03-06T19:14:08.695Z,9.05
2023-03-06T19:16:36.568Z,9.05
2023-03-06T19:19:04.315Z,9.82
2023-03-06T19:21:32.060Z,13.60
2023-03-06T19:24:03.247Z,10.13
2023-03-06T19:26:31.199Z,9.07
2023-03-06T19:28:58.979Z,9.05
2023-03-06T19:31:28.779Z,9.38
2023-03-06T19:33:57.749Z,9.05
2023-03-06T19:36:28.811Z,8.98
2023-03-06T19:38:57.918Z,9.68
2023-03-06T19:41:27.885Z,8.73
2023-03-06T19:43:58.328Z,9.00
2023-03-06T19:46:27.253Z,9.45
2023-03-06T19:48:56.171Z,9.45
2023-03-06T19:51:24.160Z,10.00
2023-03-06T19:53:52.031Z,9.95
2023-03-06T19:56:21.609Z,9.35
2023-03-06T19:58:50.718Z,9.63
2023-03-06T20:01:20.579Z,8.82
2023-03-06T20:03:50.522Z,9.27
2023-03-06T20:06:19.977Z,9.35
2023-03-06T20:08:48.547Z,9.45
2023-03-06T20:11:18.107Z,9.88
2023-03-06T20:13:47.826Z,8.93
2023-03-06T20:16:18.070Z,9.98
2023-03-06T20:18:46.624Z,9.20
2023-03-06T20:21:15.647Z,9.73
2023-03-06T20:23:43.952Z,9.75
2023-03-06T20:26:14.290Z,9.85
2023-03-06T20:28:43.024Z,9.13
2023-03-06T20:31:13.624Z,8.95
2023-03-06T20:33:43.168Z,9.95
2023-03-06T20:36:13.347Z,9.93
2023-03-06T20:38:41.297Z,11.18
2023-03-06T20:41:15.357Z,10.52
2023-03-06T20:43:43.283Z,11.05
2023-03-06T20:46:12.506Z,10.45
2023-03-06T20:48:42.741Z,10.27
2023-03-06T20:51:17.406Z,10.50
2023-03-06T20:53:45.350Z,10.32
2023-03-06T20:56:13.750Z,11.00
2023-03-06T20:58:41.794Z,9.70
2023-03-06T21:01:09.599Z,11.10
2023-03-06T21:03:37.389Z,9.68
2023-03-06T21:06:07.074Z,11.80
2023-03-06T21:08:34.845Z,9.90
2023-03-06T21:11:02.624Z,10.27
2023-03-06T21:13:30.382Z,10.55
2023-03-06T21:15:58.233Z,10.13
2023-03-06T21:18:26.302Z,10.45
2023-03-06T21:20:54.058Z,10.27
2023-03-06T21:23:23.224Z,10.32
2023-03-06T21:25:53.280Z,10.70
2023-03-06T21:28:21.261Z,10.63
2023-03-06T21:30:49.064Z,10.60
2023-03-06T21:33:16.951Z,10.65
2023-03-06T21:35:45.936Z,10.70
2023-03-06T21:38:15.471Z,10.57
2023-03-06T21:40:45.784Z,11.05
2023-03-06T21:43:15.727Z,9.80
2023-03-06T21:45:44.942Z,9.82
2023-03-06T21:48:13.322Z,10.15
2023-03-06T21:50:41.598Z,10.02
2023-03-06T21:53:09.920Z,10.25
2023-03-06T21:55:40.399Z,9.57
2023-03-06T21:58:09.906Z,9.98
2023-03-06T22:00:38.068Z,10.10
2023-03-06T22:03:06.611Z,10.48
2023-03-06T22:05:34.673Z,9.60
2023-03-06T22:08:02.435Z,11.07
2023-03-06T22:10:30.181Z,10.32
2023-03-06T22:12:57.965Z,10.60
2023-03-06T22:15:27.091Z,10.43
2023-03-06T22:17:54.839Z,10.38
2023-03-06T22:20:22.668Z,10.70
2023-03-06T22:22:50.638Z,11.02
2023-03-06T22:25:18.528Z,11.15
2023-03-06T22:27:46.342Z,11.27
2023-03-06T22:30:14.415Z,10.88
2023-03-06T22:32:43.567Z,10.88
2023-03-06T22:35:11.739Z,10.57
2023-03-06T22:37:39.606Z,11.52
2023-03-06T22:40:08.350Z,11.25
2023-03-06T22:42:36.102Z,10.45
2023-03-06T22:45:03.883Z,10.48
2023-03-06T22:47:31.652Z,10.88
2023-03-06T22:50:00.764Z,10.63
2023-03-06T22:52:28.503Z,9.95
2023-03-06T22:54:56.270Z,10.57
2023-03-06T22:57:24.091Z,10.63
2023-03-06T22:59:51.811Z,11.15
2023-03-06T23:02:20.046Z,11.25
2023-03-06T23:04:52.252Z,11.20
2023-03-06T23:07:22.296Z,12.63
2023-03-06T23:09:50.153Z,11.38
2023-03-06T23:12:17.926Z,10.60
2023-03-06T23:14:49.510Z,10.50
2023-03-06T23:17:17.337Z,10.52
2023-03-06T23:19:45.212Z,10.93
2023-03-06T23:22:14.362Z,11.43
2023-03-06T23:24:43.879Z,12.40
2023-03-06T23:27:11.760Z,11.52
2023-03-06T23:29:39.651Z,12.15
2023-03-06T23:32:08.224Z,11.40
2023-03-06T23:34:36.320Z,11.52
2023-03-06T23:37:04.420Z,11.18
2023-03-06T23:39:33.594Z,19.27
2023-03-06T23:42:02.791Z,11.77
2023-03-06T23:44:30.841Z,11.45
2023-03-06T23:46:58.623Z,11.32
2023-03-06T23:49:26.381Z,11.45
2023-03-06T23:51:54.271Z,11.35
2023-03-06T23:54:22.133Z,11.13
2023-03-06T23:56:49.984Z,11.00
2023-03-06T23:59:19.060Z,11.88
